Time,TemperatureF,DewpointF,PressureIn,WindDirection,WindDirectionDegrees,WindSpeedMPH,WindSpeedGustMPH,Humidity,HourlyPrecipIn,Conditions,Clouds,dailyrainin,SoftwareType,DateUTC
2013-01-15 00:00:00,31.6,29.0,30.30,NW,304,0.0,0.0,90,0.00,,,0.04,Wunderground v.1.15,2013-01-15 05:00:00,
2013-01-15 00:05:00,31.6,29.3,30.31,NW,304,0.0,0.0,91,0.00,,,0.00,Wunderground v.1.15,2013-01-15 05:05:00,
2013-01-15 00:10:00,31.6,29.5,30.31,NW,304,0.0,0.0,92,0.00,,,0.00,Wunderground v.1.15,2013-01-15 05:10:00,
2013-01-15 00:15:00,31.8,29.7,30.31,NW,304,0.0,0.0,92,0.00,,,0.00,Wunderground v.1.15,2013-01-15 05:15:00,
2013-01-15 00:20:00,31.8,29.7,30.31,NW,304,0.0,0.0,92,0.00,,,0.00,Wunderground v.1.15,2013-01-15 05:20:00,
2013-01-15 00:25:00,31.6,29.3,30.30,NW,304,0.0,1.0,91,0.00,,,0.00,Wunderground v.1.15,2013-01-15 05:25:00,
2013-01-15 00:30:00,31.6,29.0,30.30,NW,304,0.0,0.0,90,0.00,,,0.00,Wunderground v.1.15,2013-01-15 05:30:00,
2013-01-15 00:35:00,31.6,29.0,30.31,NW,304,0.0,0.0,90,0.00,,,0.00,Wunderground v.1.15,2013-01-15 05:35:00,
2013-01-15 00:45:00,31.8,29.5,30.32,NW,304,0.0,0.0,91,0.00,,,0.00,Wunderground v.1.15,2013-01-15 05:45:00,
2013-01-15 00:50:00,31.8,29.5,30.32,NW,304,0.0,0.0,91,0.00,,,0.00,Wunderground v.1.15,2013-01-15 05:50:00,
2013-01-15 00:55:00,31.8,29.2,30.31,NW,304,0.0,0.0,90,0.00,,,0.00,Wunderground v.1.15,2013-01-15 05:55:00,
2013-01-15 01:05:00,31.8,29.5,30.31,NW,304,0.0,0.0,91,0.00,,,0.00,Wunderground v.1.15,2013-01-15 06:05:00,
2013-01-15 01:10:00,31.8,29.5,30.31,NW,304,0.0,0.0,91,0.00,,,0.00,Wunderground v.1.15,2013-01-15 06:10:00,
2013-01-15 01:20:00,31.6,29.0,30.32,NW,304,0.0,0.0,90,0.00,,,0.00,Wunderground v.1.15,2013-01-15 06:20:00,
2013-01-15 01:25:00,31.6,29.0,30.32,NW,304,0.0,0.0,90,0.00,,,0.00,Wunderground v.1.15,2013-01-15 06:25:00,
2013-01-15 01:30:00,31.5,28.6,30.31,NW,304,0.0,0.0,89,0.00,,,0.00,Wunderground v.1.15,2013-01-15 06:30:00,
2013-01-15 01:40:00,31.3,28.2,30.30,NW,304,0.0,0.0,88,0.00,,,0.00,Wunderground v.1.15,2013-01-15 06:40:00,
2013-01-15 01:45:00,31.3,28.4,30.29,NW,304,0.0,0.0,89,0.00,,,0.00,Wunderground v.1.15,2013-01-15 06:45:00,
2013-01-15 01:55:00,31.2,28.3,30.29,NW,304,0.0,0.0,89,0.00,,,0.00,Wunderground v.1.15,2013-01-15 06:55:00,
2013-01-15 02:00:00,31.2,28.3,30.29,NW,304,0.0,0.0,89,0.00,,,0.00,Wunderground v.1.15,2013-01-15 07:00:00,
2013-01-15 02:10:00,31.0,27.9,30.28,NW,304,0.0,0.0,88,0.00,,,0.00,Wunderground v.1.15,2013-01-15 07:10:00,
2013-01-15 02:15:00,30.9,27.8,30.28,NW,304,0.0,0.0,88,0.00,,,0.00,Wunderground v.1.15,2013-01-15 07:15:00,
2013-01-15 02:20:00,30.9,28.0,30.29,NW,304,0.0,0.0,89,0.00,,,0.00,Wunderground v.1.15,2013-01-15 07:20:00,
2013-01-15 02:30:00,30.7,27.8,30.29,NW,304,0.0,0.0,89,0.00,,,0.00,Wunderground v.1.15,2013-01-15 07:30:00,
2013-01-15 02:40:00,30.7,28.1,30.30,NW,304,0.0,0.0,90,0.00,,,0.00,Wunderground v.1.15,2013-01-15 07:40:00,
2013-01-15 02:45:00,30.6,28.0,30.27,NW,304,0.0,1.0,90,0.00,,,0.00,Wunderground v.1.15,2013-01-15 07:45:00,
2013-01-15 02:50:00,30.6,27.7,30.27,NW,304,1.0,1.0,89,0.00,,,0.00,Wunderground v.1.15,2013-01-15 07:50:00,
2013-01-15 02:55:00,30.6,28.0,30.26,NW,304,0.0,1.0,90,0.00,,,0.00,Wunderground v.1.15,2013-01-15 07:55:00,
2013-01-15 03:05:00,30.4,27.8,30.27,NW,304,0.0,0.0,90,0.00,,,0.00,Wunderground v.1.15,2013-01-15 08:05:00,
2013-01-15 03:10:00,30.4,27.8,30.28,NW,304,0.0,0.0,90,0.00,,,0.00,Wunderground v.1.15,2013-01-15 08:10:00,
2013-01-15 03:15:00,30.4,27.5,30.28,NW,304,0.0,0.0,89,0.00,,,0.00,Wunderground v.1.15,2013-01-15 08:15:00,